createdAt,value
2018-03-24T00:02:14.290Z,37.10
2018-03-24T00:04:42.663Z,40.40
2018-03-24T00:07:10.204Z,39.27
2018-03-24T00:09:37.758Z,40.10
2018-03-24T00:12:06.101Z,39.50
2018-03-24T00:14:33.640Z,41.03
2018-03-24T00:17:01.172Z,41.37
2018-03-24T00:19:28.744Z,40.78
2018-03-24T00:21:56.384Z,39.00
2018-03-24T00:24:23.920Z,38.70
2018-03-24T00:26:51.860Z,39.30
2018-03-24T00:29:19.404Z,40.20
2018-03-24T00:31:46.944Z,40.77
2018-03-24T00:34:25.423Z,40.42
2018-03-24T00:39:38.385Z,40.70
2018-03-24T00:42:05.952Z,39.80
2018-03-24T00:44:33.504Z,41.43
2018-03-24T00:47:01.128Z,44.00
2018-03-24T00:49:28.664Z,43.67
2018-03-24T00:51:56.208Z,42.70
2018-03-24T00:54:23.778Z,41.60
2018-03-24T00:56:51.720Z,40.80
2018-03-24T00:59:19.884Z,43.47
2018-03-24T01:01:47.461Z,40.33
2018-03-24T01:04:17.182Z,42.00
2018-03-24T01:06:44.728Z,41.40
2018-03-24T01:09:12.655Z,41.40
2018-03-24T01:11:40.241Z,40.03
2018-03-24T01:14:07.797Z,43.47
2018-03-24T01:16:35.404Z,40.57
2018-03-24T01:19:02.946Z,43.13
2018-03-24T01:21:30.511Z,42.10
2018-03-24T01:23:58.228Z,44.70
2018-03-24T02:47:00.907Z,37.00
2018-03-24T02:49:28.448Z,40.90
2018-03-24T02:51:56.006Z,38.10
2018-03-24T02:54:23.589Z,37.73
2018-03-24T02:56:51.143Z,39.23
2018-03-24T02:59:18.680Z,37.50
2018-03-24T03:01:46.269Z,38.47
2018-03-24T03:04:16.362Z,39.63
2018-03-24T03:06:43.913Z,39.23
2018-03-24T03:09:11.961Z,40.53
2018-03-24T03:11:39.533Z,40.70
2018-03-24T03:14:07.079Z,42.80
2018-03-24T03:16:35.413Z,40.17
2018-03-24T03:19:02.958Z,40.67
2018-03-24T03:21:42.436Z,40.00
2018-03-24T03:24:09.978Z,41.83
2018-03-24T03:26:37.519Z,39.42
2018-03-24T03:29:05.412Z,41.47
2018-03-24T03:31:32.952Z,40.38
2018-03-24T03:34:00.497Z,41.22
2018-03-24T03:36:28.060Z,40.35
2018-03-24T03:38:55.609Z,39.97
2018-03-24T03:41:23.174Z,41.00
2018-03-24T03:43:50.751Z,38.73
2018-03-24T03:46:18.294Z,42.97
2018-03-24T03:48:46.068Z,39.40
2018-03-24T03:51:15.970Z,41.85
2018-03-24T03:53:43.512Z,39.92
2018-03-24T03:56:11.055Z,39.60
2018-03-24T03:58:39.419Z,41.67
2018-03-24T04:01:06.957Z,42.63
2018-03-24T04:03:34.510Z,41.92
2018-03-24T04:06:02.097Z,44.00
2018-03-24T04:08:29.648Z,44.57
2018-03-24T04:10:57.196Z,42.97
2018-03-24T04:13:24.999Z,41.60
2018-03-24T04:15:52.549Z,42.87
2018-03-24T04:18:20.869Z,41.35
2018-03-24T04:20:48.486Z,42.70
2018-03-24T04:23:16.441Z,42.95
2018-03-24T04:25:44.038Z,45.73
2018-03-24T04:28:11.626Z,43.80
2018-03-24T04:30:39.175Z,43.97
2018-03-24T04:33:06.721Z,45.87
2018-03-24T04:35:34.365Z,46.60
2018-03-24T04:38:02.677Z,46.23
2018-03-24T04:40:30.231Z,44.57
2018-03-24T04:42:57.819Z,45.13
2018-03-24T04:45:25.367Z,45.90
2018-03-24T04:47:52.916Z,45.60
2018-03-24T04:50:20.999Z,48.32
2018-03-24T04:52:48.547Z,45.10
2018-03-24T04:55:17.355Z,45.80
2018-03-24T04:57:45.423Z,43.40
2018-03-24T05:00:23.702Z,44.10
2018-03-24T05:05:22.407Z,41.87
2018-03-24T05:07:50.712Z,43.43
2018-03-24T05:10:19.172Z,46.60
2018-03-24T05:12:46.809Z,47.50
2018-03-24T05:15:16.364Z,46.58
2018-03-24T05:17:43.908Z,44.80
2018-03-24T05:20:11.497Z,43.35
2018-03-24T05:22:39.032Z,46.97
2018-03-24T05:25:06.588Z,42.90
2018-03-24T05:27:34.157Z,43.27
2018-03-24T05:30:01.704Z,44.97
2018-03-24T05:32:29.258Z,45.00
2018-03-24T05:34:57.583Z,40.47
2018-03-24T05:37:25.124Z,44.40
2018-03-24T05:39:52.747Z,41.40
2018-03-24T05:42:20.325Z,38.90
2018-03-24T05:44:47.869Z,42.00
2018-03-24T05:47:17.204Z,40.07
2018-03-24T05:49:44.780Z,37.50
2018-03-24T05:52:12.608Z,39.23
2018-03-24T05:54:40.152Z,40.70
2018-03-24T05:57:08.075Z,39.40
2018-03-24T05:59:35.621Z,37.47
2018-03-24T06:02:03.176Z,35.80
2018-03-24T06:04:30.941Z,36.70
2018-03-24T06:06:58.479Z,36.00
2018-03-24T06:09:26.016Z,37.60
2018-03-24T06:11:54.384Z,36.80
2018-03-24T06:14:22.288Z,35.40
2018-03-24T06:16:49.916Z,36.97
2018-03-24T06:19:17.692Z,35.27
2018-03-24T06:21:46.046Z,34.10
2018-03-24T06:24:25.455Z,34.50
2018-03-24T06:26:53.056Z,32.97
2018-03-24T06:29:20.609Z,33.30
2018-03-24T06:31:54.039Z,34.27
2018-03-24T06:34:21.656Z,32.93
2018-03-24T06:39:48.688Z,32.77
2018-03-24T06:42:17.656Z,34.35
2018-03-24T06:44:46.045Z,33.90
2018-03-24T06:47:15.359Z,30.80
2018-03-24T06:49:42.942Z,32.73
2018-03-24T06:52:10.496Z,33.20
2018-03-24T06:54:38.963Z,32.13
2018-03-24T06:57:07.310Z,32.60
2018-03-24T06:59:35.683Z,33.20
2018-03-24T07:02:03.996Z,30.13
2018-03-24T07:04:31.568Z,32.63
2018-03-24T07:06:59.127Z,31.50
2018-03-24T07:09:26.668Z,30.30
2018-03-24T07:11:54.267Z,30.27
2018-03-24T07:14:21.804Z,28.67
2018-03-24T07:16:49.341Z,26.80
2018-03-24T07:19:17.466Z,27.40
2018-03-24T07:21:45.018Z,25.60
2018-03-24T07:24:12.565Z,25.10
2018-03-24T07:26:40.137Z,25.20
2018-03-24T07:29:07.689Z,26.70
2018-03-24T07:31:35.315Z,25.60
2018-03-24T07:34:02.892Z,27.10
2018-03-24T07:36:30.470Z,26.07
2018-03-24T07:38:58.023Z,26.83
2018-03-24T07:41:25.939Z,25.90
2018-03-24T07:43:54.292Z,25.20
2018-03-24T07:46:21.879Z,25.92
2018-03-24T07:48:49.472Z,24.70
2018-03-24T07:51:17.051Z,25.57
2018-03-24T07:53:44.653Z,25.07
2018-03-24T07:56:12.715Z,24.17
2018-03-24T07:58:40.308Z,25.37
2018-03-24T08:01:08.645Z,25.90
2018-03-24T08:03:36.640Z,27.87
2018-03-24T08:06:04.199Z,28.23
2018-03-24T08:08:31.756Z,27.23
2018-03-24T08:10:59.377Z,28.83
2018-03-24T08:13:26.954Z,27.60
2018-03-24T08:15:54.579Z,27.20
2018-03-24T13:03:13.360Z,20.23
2018-03-24T13:05:40.906Z,22.10
2018-03-24T13:08:08.488Z,20.60
2018-03-24T13:10:36.668Z,20.47
2018-03-24T13:13:04.408Z,21.10
2018-03-24T13:15:32.005Z,20.27
2018-03-24T13:17:59.645Z,21.60
2018-03-24T13:20:27.216Z,20.17
2018-03-24T13:22:54.784Z,19.93
2018-03-24T13:25:22.836Z,20.13
2018-03-24T13:27:50.420Z,22.05
2018-03-24T13:30:17.982Z,20.67
2018-03-24T13:32:45.608Z,19.10
2018-03-24T13:35:27.768Z,21.75
2018-03-24T13:45:00.412Z,19.07
2018-03-24T13:47:27.965Z,20.97
2018-03-24T13:49:55.528Z,18.98
2018-03-24T13:52:23.141Z,20.85
2018-03-24T13:54:51.876Z,21.77
2018-03-24T13:57:19.449Z,22.53
2018-03-24T13:59:47.037Z,23.00
2018-03-24T14:02:26.556Z,22.87
2018-03-24T14:09:40.568Z,22.93
2018-03-24T14:12:08.112Z,25.03
2018-03-24T14:14:35.679Z,24.07
2018-03-24T14:17:03.308Z,25.20
2018-03-24T14:19:30.870Z,22.63
2018-03-24T14:21:58.449Z,25.43
2018-03-24T14:24:26.049Z,25.67
2018-03-24T14:26:53.623Z,25.02
2018-03-24T14:29:21.268Z,24.67
2018-03-24T14:31:48.884Z,22.70
2018-03-24T14:34:17.251Z,23.60
2018-03-24T14:36:44.829Z,22.73
2018-03-24T14:39:12.475Z,23.53
2018-03-24T14:41:40.813Z,23.17
2018-03-24T14:44:09.139Z,23.93
2018-03-24T14:46:36.712Z,24.13
2018-03-24T14:49:04.281Z,23.23
2018-03-24T14:51:31.846Z,23.75
2018-03-24T14:53:59.502Z,24.00
2018-03-24T14:56:27.103Z,24.20
2018-03-24T14:58:54.654Z,23.20
2018-03-24T15:01:22.992Z,24.27
2018-03-24T15:03:50.565Z,22.77
2018-03-24T15:06:18.130Z,22.90
2018-03-24T15:08:45.916Z,21.13
2018-03-24T15:11:25.333Z,23.00
2018-03-24T15:16:28.184Z,21.67
2018-03-24T15:18:55.720Z,22.50
2018-03-24T15:21:23.261Z,23.40
2018-03-24T15:23:50.824Z,21.20
2018-03-24T15:26:18.366Z,23.07
2018-03-24T15:28:57.684Z,23.20
2018-03-24T15:31:37.013Z,22.63
2018-03-24T15:34:16.436Z,21.50
2018-03-24T15:36:44.910Z,21.10
2018-03-24T15:39:12.528Z,20.48
2018-03-24T15:41:40.098Z,22.70
2018-03-24T15:44:07.635Z,23.80
2018-03-24T15:46:35.912Z,21.00
2018-03-24T15:49:03.480Z,20.47
2018-03-24T15:51:31.020Z,21.97
2018-03-24T15:53:58.556Z,22.00
2018-03-24T15:56:26.172Z,21.55
2018-03-24T15:58:53.814Z,23.03
2018-03-24T16:01:21.352Z,22.75
2018-03-24T16:03:48.917Z,21.63
2018-03-24T16:06:16.469Z,40.75
2018-03-24T16:08:44.806Z,26.57
2018-03-24T16:11:12.480Z,22.90
2018-03-24T16:13:40.792Z,20.23
2018-03-24T16:16:09.203Z,21.47
2018-03-24T16:18:36.989Z,23.63
2018-03-24T16:21:04.532Z,21.65
2018-03-24T16:23:32.083Z,21.83
2018-03-24T16:25:59.660Z,20.70
2018-03-24T16:28:27.203Z,21.70
2018-03-24T16:30:54.749Z,20.73
2018-03-24T16:33:22.518Z,21.50
2018-03-24T16:35:50.059Z,21.93
2018-03-24T16:38:17.604Z,20.47
2018-03-24T16:40:45.824Z,20.90
2018-03-24T16:43:14.556Z,22.10
2018-03-24T16:45:42.094Z,21.47
2018-03-24T16:48:09.688Z,19.92
2018-03-24T16:50:38.563Z,21.12
2018-03-24T16:53:06.141Z,20.90
2018-03-24T16:55:33.753Z,21.35
2018-03-24T16:58:01.293Z,22.23
2018-03-24T17:00:28.840Z,20.62
2018-03-24T17:02:56.433Z,23.47
2018-03-24T17:05:23.984Z,22.93
2018-03-24T17:07:51.687Z,22.20
2018-03-24T17:10:20.204Z,21.63
2018-03-24T17:12:48.272Z,20.80
2018-03-24T17:15:17.007Z,22.58
2018-03-24T17:17:46.411Z,22.13
2018-03-24T17:20:24.024Z,22.70
2018-03-24T17:37:13.436Z,23.20
2018-03-24T17:39:43.111Z,23.07
2018-03-24T17:42:12.437Z,20.97
2018-03-24T17:44:41.778Z,23.40
2018-03-24T17:47:09.654Z,23.27
2018-03-24T17:49:39.990Z,21.17
2018-03-24T17:52:07.590Z,21.00
2018-03-24T17:54:35.241Z,21.90
2018-03-24T17:57:04.544Z,21.27
2018-03-24T17:59:32.418Z,20.03
2018-03-24T18:02:08.996Z,21.93
2018-03-24T18:04:37.304Z,20.03
2018-03-24T18:07:05.290Z,21.12
2018-03-24T18:09:33.110Z,20.73
2018-03-24T18:12:03.969Z,21.20
2018-03-24T18:14:31.753Z,22.77
2018-03-24T18:16:59.874Z,19.07
2018-03-24T18:19:28.963Z,19.57
2018-03-24T18:21:56.676Z,21.17
2018-03-24T18:24:24.256Z,20.60
2018-03-24T18:26:51.872Z,20.87
2018-03-24T18:29:22.914Z,19.58
2018-03-24T18:31:51.921Z,21.25
2018-03-24T18:34:21.313Z,20.80
2018-03-24T18:36:49.209Z,22.17
2018-03-24T18:39:17.582Z,20.47
2018-03-24T18:41:45.469Z,20.50
2018-03-24T18:44:25.624Z,20.67
2018-03-24T18:49:32.592Z,19.87
2018-03-24T18:52:00.205Z,20.97
2018-03-24T18:54:27.831Z,19.40
2018-03-24T18:56:55.460Z,18.67
2018-03-24T18:59:23.492Z,21.20
2018-03-24T19:01:52.249Z,20.37
2018-03-24T19:04:19.811Z,18.52
2018-03-24T19:06:48.450Z,19.73
2018-03-24T19:09:17.256Z,20.65
2018-03-24T19:11:45.285Z,20.13
2018-03-24T19:14:14.593Z,20.47
2018-03-24T19:16:42.203Z,19.10
2018-03-24T19:19:10.089Z,22.87
2018-03-24T19:21:37.885Z,21.17
2018-03-24T19:24:05.464Z,20.40
2018-03-24T19:26:33.057Z,20.92
2018-03-24T19:29:00.636Z,21.90
2018-03-24T19:31:28.205Z,22.37
2018-03-24T19:33:56.239Z,19.87
